sensor_id;sensor_type;location;lat;lon;timestamp;P1;P2;P0
21358;PMS7003;13506;50.852;20.632;2022-07-10T00:02:16;15.00;13.20;8.00
21358;PMS7003;13506;50.852;20.632;2022-07-10T00:04:43;16.40;13.20;9.00
21358;PMS7003;13506;50.852;20.632;2022-07-10T00:07:10;16.00;15.00;9.40
21358;PMS7003;13506;50.852;20.632;2022-07-10T00:09:38;15.00;13.60;8.40
21358;PMS7003;13506;50.852;20.632;2022-07-10T00:12:06;16.40;13.40;8.40
21358;PMS7003;13506;50.852;20.632;2022-07-10T00:14:34;17.40;16.40;10.00
21358;PMS7003;13506;50.852;20.632;2022-07-10T00:17:01;15.40;14.80;10.00
21358;PMS7003;13506;50.852;20.632;2022-07-10T00:19:31;15.20;13.80;8.20
21358;PMS7003;13506;50.852;20.632;2022-07-10T00:21:59;16.00;13.80;8.20
21358;PMS7003;13506;50.852;20.632;2022-07-10T00:24:26;17.80;16.20;9.60
21358;PMS7003;13506;50.852;20.632;2022-07-10T00:26:54;16.20;14.40;10.00
21358;PMS7003;13506;50.852;20.632;2022-07-10T00:29:21;14.80;13.80;8.80
21358;PMS7003;13506;50.852;20.632;2022-07-10T00:31:49;17.00;17.00;10.40
21358;PMS7003;13506;50.852;20.632;2022-07-10T00:34:17;17.20;15.00;10.00
21358;PMS7003;13506;50.852;20.632;2022-07-10T00:36:45;15.60;13.80;9.40
21358;PMS7003;13506;50.852;20.632;2022-07-10T00:39:13;15.00;12.00;7.60
21358;PMS7003;13506;50.852;20.632;2022-07-10T00:41:41;16.80;16.80;9.00
21358;PMS7003;13506;50.852;20.632;2022-07-10T00:44:09;13.60;13.60;9.20
21358;PMS7003;13506;50.852;20.632;2022-07-10T00:46:36;16.80;14.00;9.60
21358;PMS7003;13506;50.852;20.632;2022-07-10T00:49:06;16.40;14.80;10.60
21358;PMS7003;13506;50.852;20.632;2022-07-10T00:51:33;14.00;14.00;8.60
21358;PMS7003;13506;50.852;20.632;2022-07-10T00:54:03;15.20;14.20;9.80
21358;PMS7003;13506;50.852;20.632;2022-07-10T00:56:32;16.60;13.20;9.00
21358;PMS7003;13506;50.852;20.632;2022-07-10T00:58:59;18.80;15.80;10.20
21358;PMS7003;13506;50.852;20.632;2022-07-10T01:01:28;16.80;16.80;9.00
21358;PMS7003;13506;50.852;20.632;2022-07-10T01:03:55;15.80;15.80;10.40
21358;PMS7003;13506;50.852;20.632;2022-07-10T01:06:23;17.60;14.40;8.80
21358;PMS7003;13506;50.852;20.632;2022-07-10T01:08:50;14.80;14.80;9.60
21358;PMS7003;13506;50.852;20.632;2022-07-10T01:11:19;14.80;14.20;8.60
21358;PMS7003;13506;50.852;20.632;2022-07-10T01:13:47;16.80;14.80;8.60
21358;PMS7003;13506;50.852;20.632;2022-07-10T01:16:15;13.20;13.20;9.00
21358;PMS7003;13506;50.852;20.632;2022-07-10T01:18:43;17.40;15.80;10.00
21358;PMS7003;13506;50.852;20.632;2022-07-10T01:21:26;14.40;13.00;8.40
21358;PMS7003;13506;50.852;20.632;2022-07-10T01:23:55;13.40;12.20;7.00
21358;PMS7003;13506;50.852;20.632;2022-07-10T01:26:23;16.00;13.00;8.40
21358;PMS7003;13506;50.852;20.632;2022-07-10T01:28:52;14.60;14.20;8.80
21358;PMS7003;13506;50.852;20.632;2022-07-10T01:31:23;18.60;15.20;9.60
21358;PMS7003;13506;50.852;20.632;2022-07-10T01:33:52;16.60;14.60;9.60
21358;PMS7003;13506;50.852;20.632;2022-07-10T01:36:20;17.00;14.00;8.20
21358;PMS7003;13506;50.852;20.632;2022-07-10T01:38:51;15.60;14.00;8.40
21358;PMS7003;13506;50.852;20.632;2022-07-10T01:41:19;14.80;14.00;9.00
21358;PMS7003;13506;50.852;20.632;2022-07-10T01:43:47;16.00;16.00;10.00
21358;PMS7003;13506;50.852;20.632;2022-07-10T01:46:15;15.60;14.20;9.80
21358;PMS7003;13506;50.852;20.632;2022-07-10T01:48:43;15.20;14.80;7.60
21358;PMS7003;13506;50.852;20.632;2022-07-10T01:51:11;15.00;15.00;8.80
21358;PMS7003;13506;50.852;20.632;2022-07-10T01:53:39;15.40;15.00;9.00
21358;PMS7003;13506;50.852;20.632;2022-07-10T01:56:09;16.20;15.00;10.00
21358;PMS7003;13506;50.852;20.632;2022-07-10T01:58:39;17.20;14.80;9.20
21358;PMS7003;13506;50.852;20.632;2022-07-10T02:01:08;18.00;16.00;10.00
21358;PMS7003;13506;50.852;20.632;2022-07-10T02:03:36;16.20;15.80;8.00
21358;PMS7003;13506;50.852;20.632;2022-07-10T02:06:22;15.20;15.00;9.60
21358;PMS7003;13506;50.852;20.632;2022-07-10T02:08:49;17.60;16.40;9.80
21358;PMS7003;13506;50.852;20.632;2022-07-10T02:11:18;18.40;16.20;9.00
21358;PMS7003;13506;50.852;20.632;2022-07-10T02:13:46;16.00;16.00;10.40
21358;PMS7003;13506;50.852;20.632;2022-07-10T02:16:13;18.20;15.80;10.00
21358;PMS7003;13506;50.852;20.632;2022-07-10T02:18:41;18.60;17.60;10.80
21358;PMS7003;13506;50.852;20.632;2022-07-10T02:21:09;16.60;16.00;9.80
21358;PMS7003;13506;50.852;20.632;2022-07-10T02:23:36;20.80;17.20;10.20
21358;PMS7003;13506;50.852;20.632;2022-07-10T02:26:06;20.80;18.20;10.80
21358;PMS7003;13506;50.852;20.632;2022-07-10T02:28:35;19.40;15.80;11.20
21358;PMS7003;13506;50.852;20.632;2022-07-10T02:31:03;16.40;14.60;10.00
21358;PMS7003;13506;50.852;20.632;2022-07-10T02:33:31;17.80;17.80;10.80
21358;PMS7003;13506;50.852;20.632;2022-07-10T02:35:58;18.20;16.20;10.00
21358;PMS7003;13506;50.852;20.632;2022-07-10T02:38:26;17.20;15.40;9.40
21358;PMS7003;13506;50.852;20.632;2022-07-10T02:40:54;23.00;18.60;11.20
21358;PMS7003;13506;50.852;20.632;2022-07-10T02:43:22;14.00;14.00;9.60
21358;PMS7003;13506;50.852;20.632;2022-07-10T02:45:51;19.40;18.00;10.40
21358;PMS7003;13506;50.852;20.632;2022-07-10T02:48:19;16.80;15.60;9.60
21358;PMS7003;13506;50.852;20.632;2022-07-10T02:50:46;15.20;14.60;10.00
21358;PMS7003;13506;50.852;20.632;2022-07-10T02:53:13;15.00;13.20;7.40
21358;PMS7003;13506;50.852;20.632;2022-07-10T02:55:41;15.00;14.20;9.00
21358;PMS7003;13506;50.852;20.632;2022-07-10T02:58:09;17.20;15.00;8.40
21358;PMS7003;13506;50.852;20.632;2022-07-10T03:00:37;19.60;16.00;9.20
21358;PMS7003;13506;50.852;20.632;2022-07-10T03:03:07;16.00;16.00;10.00
21358;PMS7003;13506;50.852;20.632;2022-07-10T03:05:35;16.20;15.00;9.20
21358;PMS7003;13506;50.852;20.632;2022-07-10T03:08:03;18.40;17.40;10.60
21358;PMS7003;13506;50.852;20.632;2022-07-10T03:10:30;17.20;16.80;10.40
21358;PMS7003;13506;50.852;20.632;2022-07-10T03:12:58;18.20;15.80;10.20
21358;PMS7003;13506;50.852;20.632;2022-07-10T03:15:26;18.60;15.60;11.00
21358;PMS7003;13506;50.852;20.632;2022-07-10T03:17:54;13.00;12.60;9.00
21358;PMS7003;13506;50.852;20.632;2022-07-10T03:20:24;17.20;16.80;10.60
21358;PMS7003;13506;50.852;20.632;2022-07-10T03:22:51;17.80;16.40;9.80
21358;PMS7003;13506;50.852;20.632;2022-07-10T03:25:19;16.60;13.40;7.40
21358;PMS7003;13506;50.852;20.632;2022-07-10T03:27:46;19.20;15.20;9.80
21358;PMS7003;13506;50.852;20.632;2022-07-10T03:30:14;18.40;16.60;11.40
21358;PMS7003;13506;50.852;20.632;2022-07-10T03:32:42;21.00;17.40;10.60
21358;PMS7003;13506;50.852;20.632;2022-07-10T03:35:09;16.40;16.40;10.80
21358;PMS7003;13506;50.852;20.632;2022-07-10T03:37:38;17.60;16.20;10.00
21358;PMS7003;13506;50.852;20.632;2022-07-10T03:40:06;17.40;15.80;9.80
21358;PMS7003;13506;50.852;20.632;2022-07-10T03:42:35;19.20;16.80;9.40
21358;PMS7003;13506;50.852;20.632;2022-07-10T03:45:03;13.60;13.00;7.20
21358;PMS7003;13506;50.852;20.632;2022-07-10T03:47:32;16.60;14.60;9.00
21358;PMS7003;13506;50.852;20.632;2022-07-10T03:49:59;16.80;13.80;8.20
21358;PMS7003;13506;50.852;20.632;2022-07-10T03:52:28;12.60;12.60;7.00
21358;PMS7003;13506;50.852;20.632;2022-07-10T03:54:56;13.00;12.80;7.20
21358;PMS7003;13506;50.852;20.632;2022-07-10T03:57:24;14.80;11.00;8.00
21358;PMS7003;13506;50.852;20.632;2022-07-10T04:00:10;12.20;12.00;6.80
21358;PMS7003;13506;50.852;20.632;2022-07-10T04:02:38;11.00;11.00;8.00
21358;PMS7003;13506;50.852;20.632;2022-07-10T04:05:06;13.80;11.00;7.00
21358;PMS7003;13506;50.852;20.632;2022-07-10T04:07:35;12.60;11.40;6.00
21358;PMS7003;13506;50.852;20.632;2022-07-10T04:10:05;13.60;11.60;7.20
21358;PMS7003;13506;50.852;20.632;2022-07-10T04:12:35;14.20;14.20;8.60
21358;PMS7003;13506;50.852;20.632;2022-07-10T04:15:02;14.00;13.80;7.00
21358;PMS7003;13506;50.852;20.632;2022-07-10T04:17:32;18.00;16.80;10.00
21358;PMS7003;13506;50.852;20.632;2022-07-10T04:19:59;16.00;13.60;7.60
21358;PMS7003;13506;50.852;20.632;2022-07-10T04:22:27;18.80;14.60;9.00
21358;PMS7003;13506;50.852;20.632;2022-07-10T04:24:55;13.60;12.20;7.80
21358;PMS7003;13506;50.852;20.632;2022-07-10T04:27:24;12.40;12.40;7.80
21358;PMS7003;13506;50.852;20.632;2022-07-10T04:29:51;16.60;15.20;9.80
21358;PMS7003;13506;50.852;20.632;2022-07-10T04:32:19;17.00;14.60;9.00
21358;PMS7003;13506;50.852;20.632;2022-07-10T04:34:46;14.20;13.40;7.40
21358;PMS7003;13506;50.852;20.632;2022-07-10T04:37:14;14.60;13.80;8.80
21358;PMS7003;13506;50.852;20.632;2022-07-10T04:39:42;15.20;14.40;9.00
21358;PMS7003;13506;50.852;20.632;2022-07-10T04:42:09;14.40;13.20;7.60
21358;PMS7003;13506;50.852;20.632;2022-07-10T04:44:38;14.00;13.20;7.40
21358;PMS7003;13506;50.852;20.632;2022-07-10T04:47:06;18.00;15.40;8.60
21358;PMS7003;13506;50.852;20.632;2022-07-10T04:49:33;16.80;13.20;7.00
21358;PMS7003;13506;50.852;20.632;2022-07-10T04:52:01;14.60;11.80;7.40
21358;PMS7003;13506;50.852;20.632;2022-07-10T04:54:29;16.60;14.80;8.00
21358;PMS7003;13506;50.852;20.632;2022-07-10T04:56:57;18.80;13.20;9.00
21358;PMS7003;13506;50.852;20.632;2022-07-10T04:59:25;17.60;14.40;8.80
21358;PMS7003;13506;50.852;20.632;2022-07-10T05:01:54;13.00;12.00;7.40
21358;PMS7003;13506;50.852;20.632;2022-07-10T05:04:22;17.00;16.00;9.60
21358;PMS7003;13506;50.852;20.632;2022-07-10T05:06:49;13.60;13.00;8.00
21358;PMS7003;13506;50.852;20.632;2022-07-10T05:09:17;14.60;11.80;7.00
21358;PMS7003;13506;50.852;20.632;2022-07-10T05:11:45;12.60;11.80;7.20
21358;PMS7003;13506;50.852;20.632;2022-07-10T05:14:13;14.80;13.60;7.20
21358;PMS7003;13506;50.852;20.632;2022-07-10T05:16:41;13.40;12.60;7.80
21358;PMS7003;13506;50.852;20.632;2022-07-10T05:19:11;16.60;14.20;7.20
21358;PMS7003;13506;50.852;20.632;2022-07-10T05:21:38;11.00;10.40;6.20
21358;PMS7003;13506;50.852;20.632;2022-07-10T05:24:06;10.40;10.00;4.00
21358;PMS7003;13506;50.852;20.632;2022-07-10T05:26:34;7.60;7.00;4.00
21358;PMS7003;13506;50.852;20.632;2022-07-10T05:29:01;9.00;7.80;4.00
21358;PMS7003;13506;50.852;20.632;2022-07-10T05:31:29;9.60;9.60;5.80
21358;PMS7003;13506;50.852;20.632;2022-07-10T05:33:57;9.60;8.00;4.60
21358;PMS7003;13506;50.852;20.632;2022-07-10T05:36:26;6.20;6.20;4.00
21358;PMS7003;13506;50.852;20.632;2022-07-10T05:38:54;8.40;7.80;4.00
21358;PMS7003;13506;50.852;20.632;2022-07-10T05:41:21;11.20;8.00;4.00
21358;PMS7003;13506;50.852;20.632;2022-07-10T05:43:49;7.60;7.60;4.00
21358;PMS7003;13506;50.852;20.632;2022-07-10T05:46:16;8.60;7.00;4.00
21358;PMS7003;13506;50.852;20.632;2022-07-10T05:48:44;8.60;6.40;4.00
21358;PMS7003;13506;50.852;20.632;2022-07-10T05:51:11;9.40;8.80;4.00
21358;PMS7003;13506;50.852;20.632;2022-07-10T05:53:41;10.00;7.80;4.20
21358;PMS7003;13506;50.852;20.632;2022-07-10T05:56:08;8.60;7.60;4.40
21358;PMS7003;13506;50.852;20.632;2022-07-10T05:58:36;10.20;8.80;4.00
21358;PMS7003;13506;50.852;20.632;2022-07-10T06:01:04;10.60;10.00;5.60
21358;PMS7003;13506;50.852;20.632;2022-07-10T06:03:31;10.60;8.60;4.60
21358;PMS7003;13506;50.852;20.632;2022-07-10T06:05:58;11.00;10.20;4.80
21358;PMS7003;13506;50.852;20.632;2022-07-10T06:08:26;9.60;9.20;4.60
21358;PMS7003;13506;50.852;20.632;2022-07-10T06:10:56;9.80;9.40;5.00
21358;PMS7003;13506;50.852;20.632;2022-07-10T06:13:23;10.20;10.20;4.60
21358;PMS7003;13506;50.852;20.632;2022-07-10T06:15:51;10.20;9.40;4.00
21358;PMS7003;13506;50.852;20.632;2022-07-10T06:18:18;9.20;8.40;4.00
21358;PMS7003;13506;50.852;20.632;2022-07-10T06:20:45;9.80;8.60;3.60
21358;PMS7003;13506;50.852;20.632;2022-07-10T06:23:13;10.40;8.60;4.60
21358;PMS7003;13506;50.852;20.632;2022-07-10T06:25:41;6.80;6.80;3.00
21358;PMS7003;13506;50.852;20.632;2022-07-10T06:28:10;9.40;9.00;3.60
21358;PMS7003;13506;50.852;20.632;2022-07-10T06:30:37;6.60;6.40;3.60
21358;PMS7003;13506;50.852;20.632;2022-07-10T06:33:05;8.20;6.00;3.00
21358;PMS7003;13506;50.852;20.632;2022-07-10T06:35:32;8.80;7.00;3.20
21358;PMS7003;13506;50.852;20.632;2022-07-10T06:38:00;8.40;8.40;4.00
21358;PMS7003;13506;50.852;20.632;2022-07-10T06:40:28;8.20;7.80;4.40
21358;PMS7003;13506;50.852;20.632;2022-07-10T06:42:56;9.60;8.60;3.60
21358;PMS7003;13506;50.852;20.632;2022-07-10T06:45:26;12.40;9.80;4.20
21358;PMS7003;13506;50.852;20.632;2022-07-10T06:47:54;13.60;10.40;6.00
21358;PMS7003;13506;50.852;20.632;2022-07-10T06:50:26;12.80;12.00;8.00
21358;PMS7003;13506;50.852;20.632;2022-07-10T06:52:56;11.60;9.80;5.60
21358;PMS7003;13506;50.852;20.632;2022-07-10T06:55:23;16.60;13.00;8.80
21358;PMS7003;13506;50.852;20.632;2022-07-10T06:57:52;15.60;13.80;7.20
21358;PMS7003;13506;50.852;20.632;2022-07-10T07:00:19;14.20;13.80;8.40
21358;PMS7003;13506;50.852;20.632;2022-07-10T07:02:49;13.20;12.20;7.00
21358;PMS7003;13506;50.852;20.632;2022-07-10T07:05:17;18.00;16.00;8.40
21358;PMS7003;13506;50.852;20.632;2022-07-10T07:07:44;13.40;10.60;6.00
21358;PMS7003;13506;50.852;20.632;2022-07-10T07:10:12;12.40;12.00;7.60
21358;PMS7003;13506;50.852;20.632;2022-07-10T07:12:40;9.60;9.60;4.60
21358;PMS7003;13506;50.852;20.632;2022-07-10T07:15:07;10.20;8.60;4.60
21358;PMS7003;13506;50.852;20.632;2022-07-10T07:17:39;6.40;6.40;3.20
21358;PMS7003;13506;50.852;20.632;2022-07-10T07:20:25;4.40;4.40;2.00
21358;PMS7003;13506;50.852;20.632;2022-07-10T07:23:09;6.40;5.00;2.80
21358;PMS7003;13506;50.852;20.632;2022-07-10T07:25:37;10.80;7.00;3.20
21358;PMS7003;13506;50.852;20.632;2022-07-10T07:28:08;5.00;5.00;3.00
21358;PMS7003;13506;50.852;20.632;2022-07-10T07:30:36;5.00;5.00;2.00
21358;PMS7003;13506;50.852;20.632;2022-07-10T07:33:04;5.60;5.60;2.00
21358;PMS7003;13506;50.852;20.632;2022-07-10T07:35:32;5.60;5.60;3.00
21358;PMS7003;13506;50.852;20.632;2022-07-10T07:38:01;8.00;6.20;2.80
21358;PMS7003;13506;50.852;20.632;2022-07-10T07:40:31;11.20;10.20;4.80
21358;PMS7003;13506;50.852;20.632;2022-07-10T07:42:59;8.80;8.80;4.80
21358;PMS7003;13506;50.852;20.632;2022-07-10T07:45:26;7.00;7.00;3.00
21358;PMS7003;13506;50.852;20.632;2022-07-10T07:47:55;7.60;7.60;3.60
21358;PMS7003;13506;50.852;20.632;2022-07-10T07:50:26;5.00;5.00;2.80
21358;PMS7003;13506;50.852;20.632;2022-07-10T07:52:56;8.00;6.00;2.80
21358;PMS7003;13506;50.852;20.632;2022-07-10T07:55:24;5.20;5.20;3.00
21358;PMS7003;13506;50.852;20.632;2022-07-10T07:57:52;8.60;7.20;3.00
21358;PMS7003;13506;50.852;20.632;2022-07-10T08:00:22;6.80;6.80;3.00
21358;PMS7003;13506;50.852;20.632;2022-07-10T08:02:52;6.00;6.00;3.00
21358;PMS7003;13506;50.852;20.632;2022-07-10T08:05:21;7.80;7.00;4.00
21358;PMS7003;13506;50.852;20.632;2022-07-10T08:07:51;11.00;9.40;5.00
21358;PMS7003;13506;50.852;20.632;2022-07-10T08:10:23;8.00;8.00;4.80
21358;PMS7003;13506;50.852;20.632;2022-07-10T08:12:51;8.00;8.00;4.00
21358;PMS7003;13506;50.852;20.632;2022-07-10T08:15:20;6.40;6.00;4.00
21358;PMS7003;13506;50.852;20.632;2022-07-10T08:17:49;5.00;5.00;2.00
21358;PMS7003;13506;50.852;20.632;2022-07-10T08:20:19;5.00;4.80;2.00
21358;PMS7003;13506;50.852;20.632;2022-07-10T08:22:47;9.20;6.60;2.60
21358;PMS7003;13506;50.852;20.632;2022-07-10T08:25:15;8.80;5.00;3.00
21358;PMS7003;13506;50.852;20.632;2022-07-10T08:27:44;4.80;4.80;2.00
21358;PMS7003;13506;50.852;20.632;2022-07-10T08:30:12;5.00;5.00;3.00
21358;PMS7003;13506;50.852;20.632;2022-07-10T08:32:40;7.20;6.00;3.00
21358;PMS7003;13506;50.852;20.632;2022-07-10T08:35:07;9.80;9.80;4.60
21358;PMS7003;13506;50.852;20.632;2022-07-10T08:37:37;9.00;9.00;3.60
21358;PMS7003;13506;50.852;20.632;2022-07-10T08:40:06;6.60;6.60;3.80
21358;PMS7003;13506;50.852;20.632;2022-07-10T08:42:38;4.40;4.40;2.60
21358;PMS7003;13506;50.852;20.632;2022-07-10T08:45:08;9.00;7.20;4.00
21358;PMS7003;13506;50.852;20.632;2022-07-10T08:47:37;7.00;7.00;4.00
21358;PMS7003;13506;50.852;20.632;2022-07-10T08:50:07;6.00;6.00;3.00
21358;PMS7003;13506;50.852;20.632;2022-07-10T08:52:48;6.80;5.80;2.40
21358;PMS7003;13506;50.852;20.632;2022-07-10T08:55:24;7.00;7.00;3.00
21358;PMS7003;13506;50.852;20.632;2022-07-10T08:57:53;8.00;7.00;4.00
21358;PMS7003;13506;50.852;20.632;2022-07-10T09:00:23;8.40;8.40;4.40
21358;PMS7003;13506;50.852;20.632;2022-07-10T09:02:52;8.00;8.00;4.80
21358;PMS7003;13506;50.852;20.632;2022-07-10T09:05:21;8.00;7.20;4.40
21358;PMS7003;13506;50.852;20.632;2022-07-10T09:07:49;6.40;6.40;4.00
21358;PMS7003;13506;50.852;20.632;2022-07-10T09:10:19;6.60;5.60;3.20
21358;PMS7003;13506;50.852;20.632;2022-07-10T09:12:49;8.20;7.40;4.00
21358;PMS7003;13506;50.852;20.632;2022-07-10T09:15:23;7.80;7.80;4.60
21358;PMS7003;13506;50.852;20.632;2022-07-10T09:17:53;7.20;7.20;4.00
21358;PMS7003;13506;50.852;20.632;2022-07-10T09:20:28;6.40;6.40;4.00
21358;PMS7003;13506;50.852;20.632;2022-07-10T09:22:59;8.40;7.40;4.00
21358;PMS7003;13506;50.852;20.632;2022-07-10T09:25:40;8.20;7.20;4.40
21358;PMS7003;13506;50.852;20.632;2022-07-10T09:28:08;5.40;5.40;2.40
21358;PMS7003;13506;50.852;20.632;2022-07-10T09:30:37;5.40;5.40;3.00
21358;PMS7003;13506;50.852;20.632;2022-07-10T09:33:19;6.00;6.00;3.60
21358;PMS7003;13506;50.852;20.632;2022-07-10T09:35:59;5.20;5.00;2.80
21358;PMS7003;13506;50.852;20.632;2022-07-10T09:38:48;5.00;5.00;3.00
21358;PMS7003;13506;50.852;20.632;2022-07-10T09:41:21;6.20;5.20;2.80
21358;PMS7003;13506;50.852;20.632;2022-07-10T09:43:51;5.40;5.40;3.80
21358;PMS7003;13506;50.852;20.632;2022-07-10T09:46:23;5.00;5.00;3.00
21358;PMS7003;13506;50.852;20.632;2022-07-10T09:49:00;6.80;5.40;3.00
21358;PMS7003;13506;50.852;20.632;2022-07-10T09:51:29;5.60;5.60;2.80
21358;PMS7003;13506;50.852;20.632;2022-07-10T09:53:59;8.20;6.80;3.40
21358;PMS7003;13506;50.852;20.632;2022-07-10T09:56:33;5.80;5.80;3.00
21358;PMS7003;13506;50.852;20.632;2022-07-10T09:59:10;7.60;7.60;4.20
21358;PMS7003;13506;50.852;20.632;2022-07-10T10:01:44;7.00;7.00;3.00
21358;PMS7003;13506;50.852;20.632;2022-07-10T10:04:13;6.00;6.00;3.40
21358;PMS7003;13506;50.852;20.632;2022-07-10T10:06:42;6.40;5.80;3.00
21358;PMS7003;13506;50.852;20.632;2022-07-10T10:09:12;6.40;6.40;3.80
21358;PMS7003;13506;50.852;20.632;2022-07-10T10:11:51;7.40;7.00;4.00
21358;PMS7003;13506;50.852;20.632;2022-07-10T10:14:24;7.20;5.00;3.00
21358;PMS7003;13506;50.852;20.632;2022-07-10T10:16:56;6.20;6.20;3.00
21358;PMS7003;13506;50.852;20.632;2022-07-10T10:19:25;5.60;5.60;2.80
21358;PMS7003;13506;50.852;20.632;2022-07-10T10:22:12;6.80;4.80;2.80
21358;PMS7003;13506;50.852;20.632;2022-07-10T10:24:41;6.60;4.80;2.00
21358;PMS7003;13506;50.852;20.632;2022-07-10T10:27:10;5.00;5.00;3.00
21358;PMS7003;13506;50.852;20.632;2022-07-10T10:29:39;5.20;5.00;2.00
21358;PMS7003;13506;50.852;20.632;2022-07-10T10:32:09;4.40;4.40;2.80
21358;PMS7003;13506;50.852;20.632;2022-07-10T10:34:37;5.20;5.00;2.00
21358;PMS7003;13506;50.852;20.632;2022-07-10T10:40:10;4.00;3.40;1.40
21358;PMS7003;13506;50.852;20.632;2022-07-10T10:42:56;11.00;9.20;4.80
21358;PMS7003;13506;50.852;20.632;2022-07-10T10:45:42;9.80;6.60;3.00
21358;PMS7003;13506;50.852;20.632;2022-07-10T10:48:12;9.00;9.00;4.00
21358;PMS7003;13506;50.852;20.632;2022-07-10T10:50:41;4.40;3.60;1.00
21358;PMS7003;13506;50.852;20.632;2022-07-10T10:53:13;3.40;3.40;1.00
21358;PMS7003;13506;50.852;20.632;2022-07-10T10:58:50;3.40;3.00;1.00
21358;PMS7003;13506;50.852;20.632;2022-07-10T11:01:25;3.80;3.80;1.40
21358;PMS7003;13506;50.852;20.632;2022-07-10T11:04:16;3.60;3.40;1.80
21358;PMS7003;13506;50.852;20.632;2022-07-10T11:06:47;3.80;3.80;1.40
21358;PMS7003;13506;50.852;20.632;2022-07-10T11:09:22;5.00;4.80;2.00
21358;PMS7003;13506;50.852;20.632;2022-07-10T11:11:58;3.00;3.00;1.00
21358;PMS7003;13506;50.852;20.632;2022-07-10T11:14:31;6.80;5.40;2.80
21358;PMS7003;13506;50.852;20.632;2022-07-10T11:17:02;6.40;5.80;3.20
21358;PMS7003;13506;50.852;20.632;2022-07-10T11:19:32;37.75;30.75;19.00
21358;PMS7003;13506;50.852;20.632;2022-07-10T11:22:11;4.40;4.40;2.00
21358;PMS7003;13506;50.852;20.632;2022-07-10T11:25:03;4.80;3.80;2.00
21358;PMS7003;13506;50.852;20.632;2022-07-10T11:27:53;3.60;3.60;1.60
21358;PMS7003;13506;50.852;20.632;2022-07-10T11:30:42;3.80;3.80;1.80
21358;PMS7003;13506;50.852;20.632;2022-07-10T11:36:13;3.80;3.80;1.60
21358;PMS7003;13506;50.852;20.632;2022-07-10T11:38:43;3.80;3.80;1.80
21358;PMS7003;13506;50.852;20.632;2022-07-10T11:41:13;3.80;3.80;1.80
21358;PMS7003;13506;50.852;20.632;2022-07-10T11:43:48;6.80;5.00;3.00
21358;PMS7003;13506;50.852;20.632;2022-07-10T11:46:17;4.60;4.60;2.00
21358;PMS7003;13506;50.852;20.632;2022-07-10T11:48:46;3.00;3.00;1.00
21358;PMS7003;13506;50.852;20.632;2022-07-10T11:51:26;4.80;4.80;2.00
21358;PMS7003;13506;50.852;20.632;2022-07-10T11:53:57;3.40;3.00;1.00
21358;PMS7003;13506;50.852;20.632;2022-07-10T11:56:26;3.80;3.00;1.00
21358;PMS7003;13506;50.852;20.632;2022-07-10T11:58:56;3.00;3.00;1.00
21358;PMS7003;13506;50.852;20.632;2022-07-10T12:01:24;2.80;2.80;1.00
21358;PMS7003;13506;50.852;20.632;2022-07-10T12:04:00;3.60;3.40;0.60
21358;PMS7003;13506;50.852;20.632;2022-07-10T12:06:32;5.00;3.20;1.20
21358;PMS7003;13506;50.852;20.632;2022-07-10T12:09:02;3.20;3.20;1.20
21358;PMS7003;13506;50.852;20.632;2022-07-10T12:11:30;4.20;4.20;1.20
21358;PMS7003;13506;50.852;20.632;2022-07-10T12:14:13;5.00;4.00;2.00
21358;PMS7003;13506;50.852;20.632;2022-07-10T12:16:43;4.00;4.00;1.60
21358;PMS7003;13506;50.852;20.632;2022-07-10T12:19:13;4.40;3.00;1.00
21358;PMS7003;13506;50.852;20.632;2022-07-10T12:21:44;4.00;3.00;1.60
21358;PMS7003;13506;50.852;20.632;2022-07-10T12:24:15;3.80;3.40;1.80
21358;PMS7003;13506;50.852;20.632;2022-07-10T12:26:45;4.00;3.00;0.80
21358;PMS7003;13506;50.852;20.632;2022-07-10T12:29:18;3.20;3.20;0.80
21358;PMS7003;13506;50.852;20.632;2022-07-10T12:31:49;3.80;3.80;0.80
21358;PMS7003;13506;50.852;20.632;2022-07-10T12:34:20;4.00;4.00;2.00
21358;PMS7003;13506;50.852;20.632;2022-07-10T12:37:06;3.60;3.60;1.80
21358;PMS7003;13506;50.852;20.632;2022-07-10T12:39:35;3.00;3.00;1.20
21358;PMS7003;13506;50.852;20.632;2022-07-10T12:42:05;10.80;9.20;5.00
21358;PMS7003;13506;50.852;20.632;2022-07-10T12:44:34;5.80;5.80;2.40
21358;PMS7003;13506;50.852;20.632;2022-07-10T12:47:04;26.60;20.40;10.20
21358;PMS7003;13506;50.852;20.632;2022-07-10T12:49:52;4.00;4.00;2.00
21358;PMS7003;13506;50.852;20.632;2022-07-10T12:52:26;4.00;4.00;2.00
21358;PMS7003;13506;50.852;20.632;2022-07-10T12:55:05;5.80;3.80;1.60
21358;PMS7003;13506;50.852;20.632;2022-07-10T12:57:45;4.40;4.40;2.00
21358;PMS7003;13506;50.852;20.632;2022-07-10T13:00:15;3.40;3.40;1.80
21358;PMS7003;13506;50.852;20.632;2022-07-10T13:02:45;4.40;4.40;1.00
21358;PMS7003;13506;50.852;20.632;2022-07-10T13:05:26;3.80;3.80;1.40
21358;PMS7003;13506;50.852;20.632;2022-07-10T13:08:06;5.20;4.20;1.80
21358;PMS7003;13506;50.852;20.632;2022-07-10T13:10:38;3.80;3.80;2.00
21358;PMS7003;13506;50.852;20.632;2022-07-10T13:13:07;4.00;4.00;2.00
21358;PMS7003;13506;50.852;20.632;2022-07-10T13:15:34;5.00;4.00;2.00
21358;PMS7003;13506;50.852;20.632;2022-07-10T13:18:06;3.80;3.80;2.00
21358;PMS7003;13506;50.852;20.632;2022-07-10T13:20:34;4.00;4.00;2.00
21358;PMS7003;13506;50.852;20.632;2022-07-10T13:23:01;5.20;5.20;2.00
21358;PMS7003;13506;50.852;20.632;2022-07-10T13:25:30;3.60;3.60;2.00
21358;PMS7003;13506;50.852;20.632;2022-07-10T13:27:59;5.00;3.00;1.20
21358;PMS7003;13506;50.852;20.632;2022-07-10T13:30:27;4.80;4.20;2.20
21358;PMS7003;13506;50.852;20.632;2022-07-10T13:32:54;3.80;3.80;2.00
21358;PMS7003;13506;50.852;20.632;2022-07-10T13:35:21;12.40;11.60;6.20
21358;PMS7003;13506;50.852;20.632;2022-07-10T13:37:49;4.60;4.60;2.00
21358;PMS7003;13506;50.852;20.632;2022-07-10T13:40:17;3.00;3.00;1.00
21358;PMS7003;13506;50.852;20.632;2022-07-10T13:42:46;4.20;4.20;1.80
21358;PMS7003;13506;50.852;20.632;2022-07-10T13:45:14;3.20;3.20;1.00
21358;PMS7003;13506;50.852;20.632;2022-07-10T13:47:41;3.40;3.40;1.80
21358;PMS7003;13506;50.852;20.632;2022-07-10T13:50:09;3.00;3.00;1.00
21358;PMS7003;13506;50.852;20.632;2022-07-10T13:52:36;3.80;3.00;1.00
21358;PMS7003;13506;50.852;20.632;2022-07-10T13:55:04;3.00;3.00;1.00
21358;PMS7003;13506;50.852;20.632;2022-07-10T13:57:32;3.00;3.00;1.00
21358;PMS7003;13506;50.852;20.632;2022-07-10T14:00:01;2.40;2.40;1.00
21358;PMS7003;13506;50.852;20.632;2022-07-10T14:02:37;3.00;2.00;1.00
21358;PMS7003;13506;50.852;20.632;2022-07-10T14:05:05;4.00;3.00;1.00
21358;PMS7003;13506;50.852;20.632;2022-07-10T14:07:34;4.00;4.00;1.00
21358;PMS7003;13506;50.852;20.632;2022-07-10T14:10:02;2.20;2.20;1.00
21358;PMS7003;13506;50.852;20.632;2022-07-10T14:12:30;2.00;2.00;0.40
21358;PMS7003;13506;50.852;20.632;2022-07-10T14:14:58;2.60;1.80;0.00
21358;PMS7003;13506;50.852;20.632;2022-07-10T14:17:27;5.00;3.00;1.00
21358;PMS7003;13506;50.852;20.632;2022-07-10T14:19:55;2.00;2.00;1.00
21358;PMS7003;13506;50.852;20.632;2022-07-10T14:22:22;3.00;3.00;1.20
21358;PMS7003;13506;50.852;20.632;2022-07-10T14:24:50;5.00;4.00;1.60